Balikesir, Turkey
Current Conditions -  °F | °C
As of 6:50 AM on Tuesday 23 Dec 2014 (Local Time) from LTBF Reporting Station
Clear Clear  
Wind Chill: 27°   Ceiling: Unl
Heat Index: 27°   Visibility: 4mi
Dew Point: 27°   Wind: 0mph
Humidity: 100%   Direction: NA
Pressure: 30.27"   Gusts: NA
Location:  39.65°N, 27.88°E
Report Text: LTBF 230350Z 00000KT 6000 NSC M03/M03 Q1025 BECMG 2000 BR
Loading
Personal Weather Stations






























Interactive Weather Map New forecast layout! Learn more

10-Day Weather Forecast

Advertisements
Track Severe Weather on mobile